Time;durP1;ratioP1;P1;durP2;ratioP2;P2;SDS_P1;SDS_P2;PMS_P1;PMS_P2;Temp;Humidity;BMP_temperature;BMP_pressure;BME280_temperature;BME280_humidity;BME280_pressure;Samples;Min_cycle;Max_cycle;Signal;HPM_P1;HPM_P2
2023/09/07 00:01:34;;;;;;;0.70;0.20;;;;;;;12.20;69.71;102935.38;5043802;28;20041;-74
2023/09/07 00:04:03;;;;;;;0.28;0.20;;;;;;;12.14;69.84;102932.69;5047855;28;20057;-81
2023/09/07 00:06:30;;;;;;;2.08;0.20;;;;;;;12.11;70.01;102922.19;5050028;28;20401;-79
2023/09/07 00:08:56;;;;;;;1.98;0.20;;;;;;;12.19;70.07;102936.25;5048983;28;20055;-79
2023/09/07 00:11:23;;;;;;;2.40;0.17;;;;;;;12.18;70.16;102934.50;5049527;28;20052;-78
2023/09/07 00:13:52;;;;;;;0.30;0.20;;;;;;;12.18;70.13;102936.22;5048212;28;20049;-79
2023/09/07 00:16:19;;;;;;;2.35;0.30;;;;;;;12.16;69.92;102938.84;5045372;28;20047;-78
2023/09/07 00:18:46;;;;;;;0.32;0.20;;;;;;;12.15;69.90;102939.69;5051547;28;20059;-78
2023/09/07 00:21:13;;;;;;;1.20;0.20;;;;;;;12.14;70.35;102930.94;5047656;28;20045;-78
2023/09/07 00:23:41;;;;;;;0.82;0.20;;;;;;;12.13;70.21;102925.72;5049415;28;20509;-81
2023/09/07 00:26:08;;;;;;;2.05;1.00;;;;;;;12.09;70.25;102924.78;5043308;28;20537;-81
2023/09/07 00:28:35;;;;;;;1.67;0.20;;;;;;;12.01;70.26;102902.00;5043777;28;20046;-81
2023/09/07 00:31:03;;;;;;;0.75;0.20;;;;;;;12.11;70.44;102927.44;5045631;28;20048;-81
2023/09/07 00:33:30;;;;;;;0.60;0.20;;;;;;;12.10;70.54;102926.56;5045962;28;20520;-81
2023/09/07 00:35:57;;;;;;;1.85;0.20;;;;;;;12.08;70.59;102922.16;5044380;28;20297;-80
2023/09/07 00:38:24;;;;;;;3.65;0.55;;;;;;;12.09;70.49;102923.91;5044425;28;20051;-80
2023/09/07 00:40:51;;;;;;;0.65;0.20;;;;;;;12.09;70.53;102926.53;5041956;28;20887;-80
2023/09/07 00:43:18;;;;;;;1.23;0.20;;;;;;;12.06;70.45;102923.88;5047660;28;20052;-81
2023/09/07 00:45:45;;;;;;;1.30;0.20;;;;;;;12.06;70.41;102926.50;5049174;28;20044;-80
2023/09/07 00:48:15;;;;;;;2.38;0.20;;;;;;;12.07;70.64;102933.50;5049449;28;20045;-80
2023/09/07 00:50:43;;;;;;;0.93;0.20;;;;;;;12.04;70.18;102929.13;5043350;28;20052;-80
2023/09/07 00:53:12;;;;;;;3.42;0.20;;;;;;;12.05;70.35;102937.84;5049093;28;20041;-81
2023/09/07 00:55:39;;;;;;;3.15;0.30;;;;;;;12.04;70.56;102936.97;5044213;28;20629;-81
2023/09/07 00:58:06;;;;;;;0.20;0.17;;;;;;;11.97;70.66;102929.91;5046538;28;20041;-80
2023/09/07 01:00:34;;;;;;;2.58;0.30;;;;;;;12.02;70.81;102935.22;5038697;28;20057;-80
2023/09/07 01:03:01;;;;;;;1.30;0.28;;;;;;;11.99;70.62;102927.31;5043938;28;20470;-80
2023/09/07 01:05:36;;;;;;;2.85;0.20;;;;;;;12.00;71.14;102927.31;5046266;28;20556;-80
2023/09/07 01:08:11;;;;;;;1.67;0.20;;;;;;;11.98;70.74;102933.41;5045151;28;20410;-79
2023/09/07 01:10:38;;;;;;;0.20;0.17;;;;;;;11.98;70.80;102936.91;5042691;28;20099;-80
2023/09/07 01:13:05;;;;;;;0.30;0.20;;;;;;;11.97;71.03;102931.66;5041636;28;20045;-74
2023/09/07 01:15:32;;;;;;;1.73;0.20;;;;;;;11.86;71.12;102916.69;5041451;28;20059;-75
2023/09/07 01:17:59;;;;;;;0.28;0.20;;;;;;;11.94;71.08;102932.50;5038357;28;20067;-75
2023/09/07 01:20:27;;;;;;;0.30;0.20;;;;;;;11.93;70.85;102933.38;5038070;28;20426;-75
2023/09/07 01:22:56;;;;;;;0.40;0.13;;;;;;;11.90;71.30;102931.59;5040115;28;20124;-74
2023/09/07 01:25:24;;;;;;;2.38;0.47;;;;;;;11.91;71.27;102929.84;5039974;28;20464;-74
2023/09/07 01:27:52;;;;;;;2.65;0.20;;;;;;;11.91;71.14;102929.84;5037574;28;20098;-74
2023/09/07 01:30:19;;;;;;;0.82;0.20;;;;;;;11.90;71.04;102928.09;5041789;28;20047;-77
2023/09/07 01:32:46;;;;;;;0.73;0.20;;;;;;;11.90;71.21;102928.09;5042541;28;20436;-78
2023/09/07 01:35:18;;;;;;;1.05;0.20;;;;;;;11.89;71.06;102931.56;5044509;28;20049;-78
2023/09/07 01:37:45;;;;;;;0.52;0.22;;;;;;;11.89;71.25;102921.09;5044511;28;20044;-77
2023/09/07 01:40:13;;;;;;;1.38;0.20;;;;;;;11.88;71.24;102919.34;5041077;28;20045;-78
2023/09/07 01:42:40;;;;;;;2.25;0.20;;;;;;;11.85;71.50;102912.34;5045335;28;20052;-77
2023/09/07 01:45:08;;;;;;;2.60;0.30;;;;;;;11.85;71.52;102919.28;5042397;28;20053;-78
2023/09/07 01:47:35;;;;;;;1.05;0.25;;;;;;;11.86;71.72;102916.69;5046201;28;20059;-78
2023/09/07 01:50:02;;;;;;;1.45;0.22;;;;;;;11.86;71.72;102921.94;5044067;28;20846;-78
2023/09/07 01:52:29;;;;;;;1.50;0.20;;;;;;;11.87;71.77;102923.72;5044473;28;20052;-78
2023/09/07 01:54:56;;;;;;;0.40;0.10;;;;;;;11.87;71.69;102918.47;5043392;28;20059;-78
2023/09/07 01:57:25;;;;;;;2.63;0.30;;;;;;;11.86;71.77;102914.06;5045251;28;20608;-77
2023/09/07 01:59:52;;;;;;;3.45;0.30;;;;;;;11.87;71.83;102914.97;5044254;28;20041;-78
2023/09/07 02:02:18;;;;;;;2.38;0.20;;;;;;;11.84;71.70;102910.56;5042489;28;20053;-77
2023/09/07 02:04:45;;;;;;;1.85;0.20;;;;;;;11.81;72.03;102907.91;5043012;28;20064;-77
2023/09/07 02:07:14;;;;;;;0.93;0.20;;;;;;;11.88;72.07;102919.34;5039056;28;20092;-78
2023/09/07 02:09:42;;;;;;;4.18;0.20;;;;;;;11.82;72.03;102906.16;5046146;28;20092;-78
2023/09/07 02:12:10;;;;;;;2.05;0.20;;;;;;;11.88;72.31;102914.97;5038295;28;20038;-79
2023/09/07 02:14:38;;;;;;;0.85;0.20;;;;;;;11.81;72.01;102902.66;5045045;28;20045;-77
2023/09/07 02:17:06;;;;;;;0.98;0.20;;;;;;;11.90;72.12;102915.00;5040423;28;20055;-77
2023/09/07 02:19:33;;;;;;;0.55;0.20;;;;;;;11.88;72.11;102909.75;5042416;28;20453;-78
2023/09/07 02:21:59;;;;;;;0.30;0.20;;;;;;;11.84;72.10;102901.78;5044587;28;20049;-74
2023/09/07 02:24:26;;;;;;;1.17;0.20;;;;;;;11.90;72.13;102912.38;5041959;28;20049;-75
2023/09/07 02:26:53;;;;;;;0.50;0.20;;;;;;;11.89;72.20;102903.63;5038377;28;20045;-74
2023/09/07 02:29:20;;;;;;;2.95;0.20;;;;;;;11.87;72.13;102899.25;5042879;28;20049;-74
2023/09/07 02:31:48;;;;;;;0.30;0.17;;;;;;;11.89;71.88;102910.63;5042416;28;20049;-75
2023/09/07 02:34:15;;;;;;;0.82;0.20;;;;;;;11.89;72.00;102901.00;5045978;28;20049;-74
2023/09/07 02:36:42;;;;;;;0.82;0.20;;;;;;;11.89;72.11;102895.78;5045239;28;20502;-74
2023/09/07 02:39:11;;;;;;;3.20;0.30;;;;;;;11.90;72.10;102899.28;5046130;28;20055;-74
2023/09/07 02:41:38;;;;;;;1.40;0.20;;;;;;;11.87;72.09;102892.28;5043685;28;20055;-74
2023/09/07 02:44:05;;;;;;;0.80;0.52;;;;;;;11.79;72.13;102882.56;5050825;28;20048;-83
2023/09/07 02:46:32;;;;;;;1.52;0.10;;;;;;;11.84;72.14;102894.84;5050844;28;20057;-83
2023/09/07 02:49:01;;;;;;;1.20;0.15;;;;;;;11.87;72.44;102899.25;5051188;28;20045;-83
2023/09/07 02:51:28;;;;;;;0.82;0.20;;;;;;;11.75;72.46;102875.53;5045439;28;20037;-83
2023/09/07 02:53:55;;;;;;;0.40;0.17;;;;;;;11.88;72.17;102896.66;5048609;28;20063;-84
2023/09/07 02:56:22;;;;;;;0.40;0.10;;;;;;;11.83;72.23;102900.03;5051419;28;20040;-84
2023/09/07 02:58:49;;;;;;;0.82;0.20;;;;;;;11.87;72.26;102910.63;5051122;28;20724;-84
2023/09/07 03:01:19;;;;;;;0.90;0.10;;;;;;;11.87;72.52;102915.84;5052811;28;20383;-84
2023/09/07 03:03:46;;;;;;;2.75;0.15;;;;;;;11.76;72.53;102899.13;5041174;28;20061;-84
2023/09/07 03:06:16;;;;;;;2.58;0.20;;;;;;;11.84;72.37;102912.25;5053237;28;20051;-85
2023/09/07 03:08:43;;;;;;;2.05;0.20;;;;;;;11.86;72.41;102914.06;5050648;28;20037;-84
2023/09/07 03:11:10;;;;;;;0.40;0.20;;;;;;;11.86;72.49;102919.31;5047411;28;20390;-84
2023/09/07 03:13:37;;;;;;;0.85;0.20;;;;;;;11.86;72.39;102916.69;5050702;28;20044;-84
2023/09/07 03:16:05;;;;;;;0.45;0.20;;;;;;;11.86;72.49;102926.28;5044019;28;20044;-84
2023/09/07 03:18:32;;;;;;;0.63;0.10;;;;;;;11.86;72.53;102915.81;5052558;28;20051;-84
2023/09/07 03:21:01;;;;;;;5.38;0.22;;;;;;;11.86;72.79;102915.81;5046120;28;20049;-85
2023/09/07 03:23:30;;;;;;;2.03;0.20;;;;;;;11.86;72.37;102913.19;5045843;28;20060;-84
2023/09/07 03:25:57;;;;;;;1.13;0.20;;;;;;;11.85;72.61;102920.19;5051444;28;20049;-84
2023/09/07 03:28:24;;;;;;;2.40;0.20;;;;;;;11.84;72.47;102921.03;5042771;28;20978;-84
2023/09/07 03:30:51;;;;;;;1.85;0.20;;;;;;;11.85;72.61;102924.53;5045601;28;20476;-85
2023/09/07 03:33:18;;;;;;;0.38;0.15;;;;;;;11.82;72.44;102914.88;5045549;28;20058;-85
2023/09/07 03:35:45;;;;;;;0.20;0.20;;;;;;;11.84;72.59;102920.13;5044497;28;20045;-85
2023/09/07 03:38:13;;;;;;;0.47;0.10;;;;;;;11.77;72.77;102905.22;5045602;28;20537;-84
2023/09/07 03:40:41;;;;;;;2.35;0.20;;;;;;;11.83;72.75;102916.63;5046549;28;20076;-85
2023/09/07 03:43:08;;;;;;;0.40;0.20;;;;;;;11.83;72.86;102921.88;5045939;28;20052;-85
2023/09/07 03:45:35;;;;;;;1.10;0.13;;;;;;;11.85;72.93;102914.03;5048654;28;20051;-85
2023/09/07 03:48:01;;;;;;;0.88;0.10;;;;;;;11.84;72.74;102921.03;5046811;28;20046;-85
2023/09/07 03:50:29;;;;;;;3.10;0.20;;;;;;;11.83;72.92;102914.00;5044631;28;20052;-84
2023/09/07 03:52:56;;;;;;;1.45;0.20;;;;;;;11.81;72.96;102917.47;5048386;28;20052;-79
2023/09/07 03:55:23;;;;;;;0.60;0.20;;;;;;;11.84;73.05;102921.03;5048654;28;20041;-79
2023/09/07 03:57:51;;;;;;;0.50;0.20;;;;;;;11.83;72.78;102916.63;5049612;28;20045;-79
2023/09/07 04:00:19;;;;;;;1.67;0.20;;;;;;;11.84;72.92;102914.88;5040508;28;20682;-79
2023/09/07 04:02:46;;;;;;;4.07;0.52;;;;;;;11.83;72.86;102911.38;5048869;28;20111;-79
2023/09/07 04:05:13;;;;;;;1.38;0.95;;;;;;;11.83;72.97;102915.75;5046664;28;20052;-79
2023/09/07 04:07:40;;;;;;;0.90;0.20;;;;;;;11.82;73.07;102925.34;5044687;28;20041;-79
2023/09/07 04:10:08;;;;;;;0.63;0.17;;;;;;;11.82;73.04;102917.50;5048407;28;20045;-79
2023/09/07 04:12:34;;;;;;;0.52;0.20;;;;;;;11.83;72.88;102928.84;5044314;28;20053;-79
2023/09/07 04:15:03;;;;;;;3.00;0.20;;;;;;;11.81;73.05;102917.47;5047545;28;20501;-79
2023/09/07 04:17:32;;;;;;;0.85;0.20;;;;;;;11.78;72.90;102907.88;5046974;28;20053;-79
2023/09/07 04:19:59;;;;;;;2.20;0.30;;;;;;;11.83;73.26;102919.25;5044520;28;20425;-79
2023/09/07 04:22:26;;;;;;;2.47;0.43;;;;;;;11.79;73.54;102914.84;5047576;28;20045;-79
2023/09/07 04:24:53;;;;;;;1.95;0.20;;;;;;;11.84;73.36;102922.75;5044697;28;20045;-79
2023/09/07 04:27:20;;;;;;;0.60;0.30;;;;;;;11.82;74.11;102914.88;5042417;28;20041;-79
2023/09/07 04:29:47;;;;;;;0.50;0.30;;;;;;;11.82;74.27;102911.41;5050709;28;20041;-80
2023/09/07 04:32:15;;;;;;;6.70;0.60;;;;;;;11.85;75.04;102924.53;5047714;28;20047;-79
2023/09/07 04:34:42;;;;;;;3.28;0.52;;;;;;;11.90;75.43;102926.34;5046067;28;20049;-78
2023/09/07 04:37:09;;;;;;;2.60;0.80;;;;;;;11.90;75.82;102917.63;5048810;28;20048;-79
2023/09/07 04:39:36;;;;;;;3.97;0.50;;;;;;;11.87;76.25;102905.38;5045571;28;20052;-79
2023/09/07 04:42:03;;;;;;;4.10;0.73;;;;;;;11.99;76.45;102916.84;5045599;28;20041;-78
2023/09/07 04:44:30;;;;;;;2.33;0.60;;;;;;;12.01;76.20;102915.09;5043259;28;20055;-80
2023/09/07 04:46:57;;;;;;;4.72;1.00;;;;;;;12.02;76.76;102922.97;5047865;28;20041;-79
2023/09/07 04:49:26;;;;;;;2.83;0.63;;;;;;;12.07;76.89;102923.03;5047946;28;20044;-79
2023/09/07 04:51:54;;;;;;;1.52;0.70;;;;;;;12.10;77.04;102925.69;5041965;28;20049;-79
2023/09/07 04:54:21;;;;;;;2.25;1.08;;;;;;;12.12;77.03;102924.84;5048922;28;20098;-79
2023/09/07 04:56:48;;;;;;;1.55;0.95;;;;;;;12.12;77.40;102918.69;5043612;28;20052;-78
2023/09/07 04:59:15;;;;;;;1.70;0.85;;;;;;;12.20;77.53;102922.28;5050361;28;20056;-79
2023/09/07 05:01:42;;;;;;;3.75;1.60;;;;;;;12.24;78.00;102923.16;5045987;28;20045;-78
2023/09/07 05:04:09;;;;;;;2.58;0.90;;;;;;;12.26;78.24;102914.47;5044578;28;20049;-82
2023/09/07 05:06:40;;;;;;;2.47;1.45;;;;;;;12.31;78.47;102918.00;5046826;28;20049;-79
2023/09/07 05:09:07;;;;;;;4.97;1.77;;;;;;;12.35;78.46;102921.53;5047428;28;20132;-79
2023/09/07 05:11:35;;;;;;;1.73;1.00;;;;;;;12.33;78.80;102911.03;5047695;28;20049;-80
2023/09/07 05:14:02;;;;;;;10.73;1.55;;;;;;;12.45;78.96;102922.50;5047499;28;20051;-80
2023/09/07 05:16:29;;;;;;;4.50;1.27;;;;;;;12.51;79.30;102927.78;5047082;28;20052;-79
2023/09/07 05:18:56;;;;;;;6.05;1.58;;;;;;;12.53;79.45;102920.81;5046838;28;20494;-79
2023/09/07 05:21:23;;;;;;;6.65;1.50;;;;;;;12.55;79.61;102914.72;5044133;28;20056;-80
2023/09/07 05:23:51;;;;;;;2.63;1.75;;;;;;;12.62;79.86;102926.13;5045566;28;20045;-79
2023/09/07 05:26:23;;;;;;;7.82;1.85;;;;;;;12.67;79.98;102919.16;5048217;28;20048;-81
2023/09/07 05:28:50;;;;;;;4.18;1.83;;;;;;;12.72;80.03;102920.09;5040337;28;20045;-80
2023/09/07 05:31:17;;;;;;;8.85;1.92;;;;;;;12.77;80.22;102925.34;5045655;28;20056;-79
2023/09/07 05:33:44;;;;;;;1.90;1.20;;;;;;;12.83;80.30;102922.75;5041926;28;20051;-79
2023/09/07 05:36:11;;;;;;;4.40;1.33;;;;;;;12.89;80.24;102924.53;5047319;28;20051;-79
2023/09/07 05:38:38;;;;;;;4.03;1.27;;;;;;;12.93;80.36;102931.59;5048064;28;20056;-80
2023/09/07 05:41:07;;;;;;;4.05;1.67;;;;;;;12.98;80.52;102916.75;5043312;28;20099;-80
2023/09/07 05:43:34;;;;;;;3.38;1.63;;;;;;;13.01;80.61;102909.78;5044839;28;20052;-80
2023/09/07 05:46:02;;;;;;;4.28;1.05;;;;;;;13.09;80.64;102911.53;5042787;28;20057;-79
2023/09/07 05:48:29;;;;;;;4.70;1.30;;;;;;;13.14;81.01;102915.94;5046508;28;20045;-80
2023/09/07 05:50:56;;;;;;;3.55;1.42;;;;;;;13.20;81.00;102915.97;5045001;28;20486;-82
2023/09/07 05:53:24;;;;;;;4.05;1.73;;;;;;;13.10;81.21;102887.94;5041161;28;20053;-78
2023/09/07 05:55:51;;;;;;;3.42;1.42;;;;;;;13.31;81.38;102921.31;5037534;28;20536;-79
2023/09/07 05:58:19;;;;;;;3.92;1.20;;;;;;;13.37;81.29;102918.69;5040595;28;20667;-77
2023/09/07 06:00:46;;;;;;;3.55;1.00;;;;;;;13.42;81.24;102926.59;5044109;28;20098;-77
2023/09/07 06:03:13;;;;;;;2.22;1.08;;;;;;;13.49;81.42;102924.03;5042875;28;20045;-76
2023/09/07 06:05:40;;;;;;;3.80;1.88;;;;;;;13.55;81.53;102915.28;5049197;28;20060;-76
2023/09/07 06:08:08;;;;;;;3.13;1.20;;;;;;;13.56;81.56;102903.91;5047178;28;20049;-76
2023/09/07 06:10:35;;;;;;;8.32;1.00;;;;;;;13.66;81.39;102915.31;5048015;28;20087;-76
2023/09/07 06:13:02;;;;;;;3.92;0.80;;;;;;;13.72;81.65;102918.84;5047743;28;20627;-77
2023/09/07 06:15:31;;;;;;;4.00;1.00;;;;;;;13.77;81.95;102918.84;5050059;28;20052;-77
2023/09/07 06:17:58;;;;;;;4.20;0.60;;;;;;;13.83;81.93;102912.72;5050433;28;20092;-77
2023/09/07 06:20:25;;;;;;;3.40;0.70;;;;;;;13.87;81.90;102918.00;5046142;28;20098;-77
2023/09/07 06:22:52;;;;;;;1.15;0.60;;;;;;;13.94;81.92;102921.50;5044613;28;20063;-77
2023/09/07 06:25:19;;;;;;;1.88;0.50;;;;;;;14.00;82.02;102921.50;5046735;28;20045;-77
2023/09/07 06:27:45;;;;;;;0.95;0.50;;;;;;;14.04;82.25;102918.03;5046567;28;20043;-77
2023/09/07 06:30:12;;;;;;;3.10;0.70;;;;;;;14.09;82.13;102913.66;5049437;28;20536;-78
2023/09/07 06:32:42;;;;;;;4.63;0.60;;;;;;;14.15;82.47;102911.03;5052496;28;20059;-77
2023/09/07 06:35:10;;;;;;;0.88;0.40;;;;;;;14.20;82.37;102904.88;5052079;28;20072;-78
2023/09/07 06:37:40;;;;;;;2.58;0.40;;;;;;;14.27;82.54;102906.66;5044091;28;20135;-77
2023/09/07 06:40:09;;;;;;;2.60;0.30;;;;;;;14.33;82.81;102904.03;5047925;28;20447;-78
2023/09/07 06:42:36;;;;;;;1.48;0.40;;;;;;;14.38;82.66;102905.78;5047487;28;20494;-77
2023/09/07 06:45:03;;;;;;;1.73;0.40;;;;;;;14.44;82.75;102906.66;5051962;28;20047;-78
2023/09/07 06:47:30;;;;;;;1.52;0.50;;;;;;;14.50;82.55;102906.66;5045135;28;20184;-78
2023/09/07 06:49:59;;;;;;;3.53;0.35;;;;;;;14.54;82.55;102901.44;5048703;28;20045;-77
2023/09/07 06:52:26;;;;;;;2.22;0.40;;;;;;;14.64;82.53;102906.69;5044047;28;20048;-86
2023/09/07 06:54:53;;;;;;;4.82;0.60;;;;;;;14.69;82.53;102904.91;5046753;28;20056;-83
2023/09/07 06:57:20;;;;;;;3.13;0.65;;;;;;;14.75;82.55;102899.66;5046644;28;20052;-80
2023/09/07 06:59:47;;;;;;;1.40;0.40;;;;;;;14.83;82.42;102903.13;5051596;28;20052;-80
2023/09/07 07:02:14;;;;;;;5.53;0.50;;;;;;;14.89;82.43;102902.25;5049001;28;20045;-72
2023/09/07 07:04:41;;;;;;;3.90;0.50;;;;;;;14.96;82.23;102902.19;5041314;28;20045;-73
2023/09/07 07:07:09;;;;;;;0.77;0.40;;;;;;;15.03;82.22;102898.69;5043266;28;20045;-72
2023/09/07 07:09:36;;;;;;;2.15;0.40;;;;;;;15.12;82.20;102910.06;5043598;28;20470;-74
2023/09/07 07:12:04;;;;;;;0.85;0.40;;;;;;;15.16;82.09;102893.38;5045144;28;20053;-74
2023/09/07 07:14:31;;;;;;;1.92;0.30;;;;;;;15.29;81.99;102903.00;5042434;28;20063;-74
2023/09/07 07:16:57;;;;;;;5.78;0.63;;;;;;;15.35;81.66;102902.94;5044232;28;20041;-73
2023/09/07 07:19:25;;;;;;;5.15;1.52;;;;;;;15.46;81.51;102900.28;5042171;28;20060;-74
2023/09/07 07:21:53;;;;;;;0.68;0.30;;;;;;;15.53;81.69;102901.97;5043635;28;20919;-76
2023/09/07 07:24:22;;;;;;;1.65;0.40;;;;;;;15.63;81.49;102897.56;5046662;28;20041;-76
2023/09/07 07:26:49;;;;;;;4.13;0.40;;;;;;;15.71;81.20;102903.69;5046376;28;20569;-76
2023/09/07 07:29:16;;;;;;;0.52;0.32;;;;;;;15.80;81.04;102903.63;5044778;28;20375;-76
2023/09/07 07:31:42;;;;;;;3.03;0.30;;;;;;;15.91;80.85;102908.84;5043653;28;20053;-75
2023/09/07 07:34:09;;;;;;;1.38;0.25;;;;;;;16.03;80.53;102899.97;5040419;28;20043;-76
2023/09/07 07:36:36;;;;;;;0.63;0.22;;;;;;;16.12;80.12;102894.63;5044712;28;20485;-76
2023/09/07 07:39:04;;;;;;;3.00;0.30;;;;;;;16.23;79.97;102900.69;5043993;28;20433;-76
2023/09/07 07:41:35;;;;;;;1.50;0.30;;;;;;;16.35;79.99;102907.63;5043526;28;20057;-74
2023/09/07 07:44:01;;;;;;;2.55;0.30;;;;;;;16.45;79.94;102909.28;5044090;28;20056;-79
2023/09/07 07:46:29;;;;;;;1.30;0.30;;;;;;;16.45;79.58;102887.28;5043495;28;20052;-76
2023/09/07 07:48:55;;;;;;;0.70;0.20;;;;;;;16.68;79.38;102898.53;5047523;28;20045;-76
2023/09/07 07:51:23;;;;;;;1.25;0.20;;;;;;;16.81;79.05;102900.16;5047754;28;20041;-76
2023/09/07 07:53:50;;;;;;;3.70;0.30;;;;;;;16.94;78.50;102900.03;5049122;28;20053;-76
2023/09/07 07:56:17;;;;;;;3.90;0.30;;;;;;;17.04;78.08;102899.91;5048079;28;20041;-75
2023/09/07 07:58:45;;;;;;;0.55;0.30;;;;;;;17.19;77.46;102893.59;5042926;28;20052;-77
2023/09/07 08:01:16;;;;;;;0.75;0.40;;;;;;;17.33;77.23;102881.94;5048202;28;20041;-75
2023/09/07 08:03:43;;;;;;;8.35;0.20;;;;;;;17.45;76.79;102890.59;5043143;28;20936;-76
2023/09/07 08:06:11;;;;;;;1.10;0.30;;;;;;;17.58;76.56;102886.00;5044315;28;20091;-76
2023/09/07 08:08:38;;;;;;;0.77;0.28;;;;;;;17.70;75.96;102880.56;5046040;28;20148;-72
2023/09/07 08:11:05;;;;;;;0.70;0.28;;;;;;;17.86;75.61;102885.63;5044121;28;20064;-78
2023/09/07 08:13:34;;;;;;;0.40;0.30;;;;;;;17.99;74.85;102876.63;5045268;28;20132;-76
2023/09/07 08:16:02;;;;;;;1.95;0.30;;;;;;;18.10;74.67;102882.63;5046336;28;20103;-78
2023/09/07 08:18:30;;;;;;;0.55;0.30;;;;;;;18.24;74.03;102892.94;5046684;28;20053;-78
2023/09/07 08:20:57;;;;;;;0.60;0.30;;;;;;;18.34;73.88;102889.25;5047926;28;20068;-77
2023/09/07 08:23:24;;;;;;;0.98;0.20;;;;;;;18.46;73.22;102885.50;5043582;28;20049;-76
2023/09/07 08:25:52;;;;;;;1.13;0.20;;;;;;;18.58;72.44;102871.19;5041918;28;20095;-75
2023/09/07 08:28:22;;;;;;;4.38;0.60;;;;;;;18.69;72.17;102873.63;5043679;28;20048;-73
2023/09/07 08:30:53;;;;;;;0.95;0.28;;;;;;;18.79;72.17;102876.13;5042829;28;20049;-75
2023/09/07 08:33:23;;;;;;;0.35;0.20;;;;;;;18.91;72.28;102867.06;5042021;28;20059;-75
2023/09/07 08:35:54;;;;;;;1.27;0.40;;;;;;;19.02;72.20;102870.34;5041137;28;20509;-76
2023/09/07 08:38:24;;;;;;;1.38;0.30;;;;;;;19.12;71.84;102865.72;5042770;28;20041;-75
2023/09/07 08:40:52;;;;;;;2.08;0.30;;;;;;;19.21;71.06;102868.22;5042433;28;20408;-73
2023/09/07 08:43:20;;;;;;;1.35;0.32;;;;;;;19.30;71.21;102875.09;5042154;28;21028;-73
2023/09/07 08:45:52;;;;;;;1.38;0.30;;;;;;;19.39;69.50;102872.22;5043746;28;20047;-73
2023/09/07 08:48:21;;;;;;;0.77;0.30;;;;;;;19.46;69.80;102870.31;5039290;28;20045;-74
2023/09/07 08:50:52;;;;;;;2.40;0.20;;;;;;;19.45;68.79;102856.19;5044361;28;20389;-73
2023/09/07 08:53:20;;;;;;;1.85;0.20;;;;;;;19.53;68.34;102861.31;5042798;28;20040;-74
2023/09/07 08:55:47;;;;;;;1.55;0.22;;;;;;;19.62;67.30;102868.19;5043406;28;20091;-75
2023/09/07 08:58:14;;;;;;;1.10;0.30;;;;;;;19.67;66.72;102876.94;5039852;28;20060;-73
2023/09/07 09:00:43;;;;;;;0.70;0.30;;;;;;;19.71;66.92;102874.16;5044133;28;20505;-74
2023/09/07 09:03:10;;;;;;;1.20;0.30;;;;;;;19.73;66.98;102875.00;5041167;28;20053;-73
2023/09/07 09:05:42;;;;;;;1.55;0.28;;;;;;;19.77;66.74;102862.53;5041831;28;20048;-75
2023/09/07 09:08:09;;;;;;;2.33;0.30;;;;;;;19.80;66.54;102872.22;5042254;28;20041;-74
2023/09/07 09:10:39;;;;;;;0.47;0.30;;;;;;;19.82;66.09;102876.56;5043827;28;20052;-75
2023/09/07 09:13:06;;;;;;;4.97;0.68;;;;;;;19.86;66.40;102872.06;5043486;28;20037;-78
2023/09/07 09:15:33;;;;;;;0.60;0.30;;;;;;;19.88;65.93;102871.13;5041807;28;20497;-74
2023/09/07 09:18:10;;;;;;;1.08;0.20;;;;;;;19.90;66.19;102861.34;5040115;28;20498;-76
2023/09/07 09:20:39;;;;;;;0.77;0.28;;;;;;;19.92;65.56;102863.94;5043183;28;20049;-74
2023/09/07 09:23:07;;;;;;;2.38;0.30;;;;;;;19.93;65.19;102855.09;5038425;28;20406;-72
2023/09/07 09:25:34;;;;;;;0.77;0.30;;;;;;;19.93;65.26;102850.66;5039707;28;20621;-71
2023/09/07 09:28:01;;;;;;;4.70;0.30;;;;;;;19.96;65.31;102857.69;5043748;28;20509;-73
2023/09/07 09:30:28;;;;;;;0.50;0.28;;;;;;;19.96;64.49;102845.28;5038179;28;20517;-73
2023/09/07 09:32:55;;;;;;;1.67;0.30;;;;;;;19.99;64.39;102841.69;5039963;28;20402;-73
2023/09/07 09:35:23;;;;;;;1.55;0.30;;;;;;;20.01;63.96;102831.91;5036084;28;20055;-72
2023/09/07 09:37:50;;;;;;;2.08;0.20;;;;;;;20.03;63.75;102826.56;5044018;28;20158;-74
2023/09/07 09:40:19;;;;;;;0.60;0.30;;;;;;;20.05;63.61;102824.75;5040161;28;20171;-73
2023/09/07 09:42:46;;;;;;;1.60;0.20;;;;;;;20.08;63.59;102822.00;5042867;28;20529;-76
2023/09/07 09:45:13;;;;;;;3.28;0.30;;;;;;;20.11;63.76;102830.75;5041049;28;20586;-75
2023/09/07 09:47:41;;;;;;;1.77;0.30;;;;;;;20.13;63.45;102820.97;5045308;28;20048;-76
2023/09/07 09:50:10;;;;;;;2.22;0.30;;;;;;;20.17;63.20;102814.66;5039174;28;20044;-75
2023/09/07 09:52:37;;;;;;;1.13;0.20;;;;;;;20.18;63.07;102823.53;5042257;28;20421;-75
2023/09/07 09:55:07;;;;;;;1.20;0.20;;;;;;;20.17;62.91;102811.16;5039171;28;20045;-75
2023/09/07 09:57:36;;;;;;;0.30;0.30;;;;;;;20.26;63.00;102818.84;5037946;28;20612;-76
2023/09/07 10:00:19;;;;;;;1.40;0.30;;;;;;;20.29;62.32;102824.09;5041681;28;20119;-74
2023/09/07 10:02:51;;;;;;;0.55;0.20;;;;;;;20.33;62.67;102825.75;5037298;28;20064;-75
2023/09/07 10:05:19;;;;;;;6.47;0.30;;;;;;;20.35;62.41;102817.75;5042111;28;20497;-75
2023/09/07 10:07:49;;;;;;;1.95;0.30;;;;;;;20.39;62.54;102830.03;5040218;28;20049;-76
2023/09/07 10:10:19;;;;;;;1.20;0.30;;;;;;;20.42;61.30;102819.31;5043112;28;20053;-75
2023/09/07 10:12:53;;;;;;;2.58;0.20;;;;;;;20.44;60.43;102826.34;5039435;28;20049;-75
2023/09/07 10:15:24;;;;;;;0.35;0.20;;;;;;;20.45;60.73;102820.09;5040334;28;20325;-76
2023/09/07 10:17:52;;;;;;;1.30;0.20;;;;;;;20.49;60.73;102814.72;5041473;28;20524;-76
2023/09/07 10:20:23;;;;;;;0.35;0.20;;;;;;;20.50;61.20;102811.16;5043785;28;20045;-76
2023/09/07 10:22:50;;;;;;;1.60;0.30;;;;;;;20.54;60.92;102823.47;5043723;28;20041;-76
2023/09/07 10:25:22;;;;;;;0.50;0.30;;;;;;;20.50;61.08;102812.03;5042423;28;20041;-76
2023/09/07 10:27:50;;;;;;;0.70;0.25;;;;;;;20.58;60.54;102815.38;5041560;28;20041;-76
2023/09/07 10:30:20;;;;;;;3.35;0.40;;;;;;;20.60;60.71;102812.66;5038190;28;20044;-77
2023/09/07 10:32:47;;;;;;;3.38;0.40;;;;;;;20.61;60.55;102803.81;5044720;28;20503;-75
2023/09/07 10:35:16;;;;;;;1.70;0.30;;;;;;;20.64;60.96;102803.72;5032666;28;20045;-76
2023/09/07 10:37:46;;;;;;;2.25;0.30;;;;;;;20.60;60.86;102792.28;5041547;28;20048;-75
2023/09/07 10:40:14;;;;;;;2.70;0.20;;;;;;;20.66;61.01;102797.44;5041319;28;20100;-75
2023/09/07 10:42:41;;;;;;;2.42;1.30;;;;;;;20.69;61.13;102795.59;5043892;28;20072;-76
2023/09/07 10:45:16;;;;;;;0.55;0.20;;;;;;;20.70;61.09;102798.22;5042031;28;20052;-75
2023/09/07 10:47:43;;;;;;;1.17;0.30;;;;;;;20.72;60.98;102801.72;5041593;28;20134;-76
2023/09/07 10:50:12;;;;;;;0.55;0.28;;;;;;;20.74;60.59;102789.22;5043130;28;20490;-76
2023/09/07 10:52:41;;;;;;;1.02;0.73;;;;;;;20.75;60.65;102785.69;5045697;28;20042;-77
2023/09/07 10:55:10;;;;;;;2.20;0.50;;;;;;;20.78;60.86;102790.03;5044793;28;20445;-76
2023/09/07 10:57:43;;;;;;;2.05;0.30;;;;;;;20.79;60.81;102781.16;5047816;28;20482;-76
2023/09/07 11:00:13;;;;;;;2.17;0.30;;;;;;;20.78;60.11;102769.66;5045534;28;20037;-77
2023/09/07 11:02:40;;;;;;;7.00;0.60;;;;;;;20.80;60.05;102777.56;5048332;28;20064;-78
2023/09/07 11:05:08;;;;;;;2.03;0.30;;;;;;;20.81;59.82;102776.66;5046044;28;20041;-77
2023/09/07 11:07:35;;;;;;;0.25;0.25;;;;;;;20.81;59.56;102776.66;5048833;28;20056;-78
2023/09/07 11:10:04;;;;;;;0.70;0.28;;;;;;;20.83;60.15;102789.00;5041427;28;20540;-76
2023/09/07 11:12:31;;;;;;;1.35;0.22;;;;;;;20.84;59.93;102780.09;5042772;28;20053;-76
2023/09/07 11:14:59;;;;;;;1.08;0.30;;;;;;;20.87;59.85;102780.00;5046991;28;20383;-85
2023/09/07 11:17:30;;;;;;;2.25;0.25;;;;;;;20.87;59.26;102773.81;5049709;28;20509;-85
2023/09/07 11:19:57;;;;;;;0.90;0.20;;;;;;;20.87;59.63;102769.38;5046911;28;20049;-77
2023/09/07 11:22:24;;;;;;;0.93;0.30;;;;;;;20.89;59.27;102775.53;5047172;28;20049;-78
2023/09/07 11:24:51;;;;;;;0.68;0.30;;;;;;;20.89;59.22;102764.91;5049444;28;20498;-76
2023/09/07 11:27:19;;;;;;;1.02;0.30;;;;;;;20.74;59.51;102736.13;5042925;28;20040;-77